createdAt,value
2019-05-15T00:01:32.941Z,8.90
2019-05-15T00:04:03.371Z,8.80
2019-05-15T00:06:33.809Z,8.80
2019-05-15T00:09:07.969Z,8.80
2019-05-15T00:11:38.924Z,8.80
2019-05-15T00:14:09.588Z,8.80
2019-05-15T00:16:40.014Z,8.80
2019-05-15T00:19:10.382Z,8.70
2019-05-15T00:21:40.742Z,8.80
2019-05-15T00:24:13.165Z,8.60
2019-05-15T00:26:43.205Z,8.60
2019-05-15T00:29:16.406Z,8.60
2019-05-15T00:31:48.339Z,8.60
2019-05-15T00:34:18.315Z,8.60
2019-05-15T00:36:49.051Z,8.40
2019-05-15T00:39:19.811Z,8.50
2019-05-15T00:41:54.296Z,8.50
2019-05-15T00:44:22.317Z,8.60
2019-05-15T00:46:52.679Z,8.50
2019-05-15T00:49:23.045Z,8.50
2019-05-15T00:51:53.434Z,8.40
2019-05-15T00:54:24.209Z,8.30
2019-05-15T00:56:54.561Z,8.20
2019-05-15T00:59:27.554Z,8.30
2019-05-15T01:01:59.296Z,8.20
2019-05-15T01:04:29.108Z,8.30
2019-05-15T01:06:59.463Z,8.30
2019-05-15T01:09:29.849Z,8.30
2019-05-15T01:12:00.249Z,8.30
2019-05-15T01:14:30.631Z,8.30
2019-05-15T01:17:01.038Z,8.40
2019-05-15T01:19:31.417Z,8.20
2019-05-15T01:22:01.776Z,8.30
2019-05-15T01:24:32.147Z,8.20
2019-05-15T01:27:02.507Z,8.10
2019-05-15T01:29:43.707Z,7.90
2019-05-15T01:32:04.922Z,7.90
2019-05-15T01:34:35.295Z,7.80
2019-05-15T01:37:05.645Z,7.80
2019-05-15T01:39:38.357Z,7.80
2019-05-15T01:42:08.395Z,7.60
2019-05-15T01:44:39.090Z,7.80
2019-05-15T01:47:09.495Z,7.90
2019-05-15T01:49:39.901Z,7.60
2019-05-15T01:52:10.270Z,7.60
2019-05-15T01:54:40.678Z,7.70
2019-05-15T01:57:11.026Z,7.50
2019-05-15T01:59:53.951Z,7.60
2019-05-15T02:02:13.474Z,7.60
2019-05-15T02:04:43.845Z,7.70
2019-05-15T02:07:14.286Z,7.70
2019-05-15T02:09:44.666Z,7.60
2019-05-15T02:12:19.142Z,7.60
2019-05-15T02:14:49.465Z,7.60
2019-05-15T02:17:19.809Z,7.40
2019-05-15T02:19:50.174Z,7.50
2019-05-15T02:22:20.512Z,7.30
2019-05-15T02:24:50.895Z,7.60
2019-05-15T02:27:21.346Z,7.40
2019-05-15T02:29:51.734Z,7.40
2019-05-15T02:32:22.082Z,7.40
2019-05-15T02:34:52.506Z,7.30
2019-05-15T02:37:22.931Z,7.40
2019-05-15T02:39:53.290Z,7.20
2019-05-15T02:42:23.631Z,7.30
2019-05-15T02:44:54.026Z,7.30
2019-05-15T02:47:24.374Z,7.30
2019-05-15T02:49:54.758Z,7.20
2019-05-15T02:52:25.130Z,7.20
2019-05-15T02:54:55.491Z,7.00
2019-05-15T02:57:25.839Z,7.10
2019-05-15T02:59:59.274Z,7.20
2019-05-15T03:02:29.706Z,7.20
2019-05-15T03:05:00.097Z,7.10
2019-05-15T03:07:30.539Z,6.80
2019-05-15T03:10:00.877Z,6.70
2019-05-15T03:12:31.244Z,6.50
2019-05-15T03:15:01.633Z,6.20
2019-05-15T03:17:32.071Z,6.00
2019-05-15T03:20:02.540Z,6.10
2019-05-15T03:22:32.898Z,6.30
2019-05-15T03:25:03.334Z,6.40
2019-05-15T03:27:34.858Z,6.40
2019-05-15T03:30:12.233Z,6.60
2019-05-15T03:32:46.385Z,6.70
2019-05-15T03:35:14.455Z,6.60
2019-05-15T03:37:42.773Z,6.50
2019-05-15T03:40:13.247Z,6.60
2019-05-15T03:42:43.581Z,6.60
2019-05-15T03:45:14.545Z,6.60
2019-05-15T03:47:44.986Z,6.60
2019-05-15T03:50:15.471Z,6.70
2019-05-15T03:52:45.822Z,6.70
2019-05-15T03:55:18.588Z,6.60
2019-05-15T03:57:49.847Z,6.50
2019-05-15T04:00:20.512Z,6.60
2019-05-15T04:02:50.915Z,6.60
2019-05-15T04:05:21.277Z,6.60
2019-05-15T04:07:51.628Z,6.60
2019-05-15T04:10:21.990Z,6.50
2019-05-15T04:12:52.342Z,6.30
2019-05-15T04:15:22.784Z,6.50
2019-05-15T04:17:53.140Z,6.60
2019-05-15T04:20:23.557Z,6.50
2019-05-15T04:22:53.931Z,6.50
2019-05-15T04:25:25.207Z,6.50
2019-05-15T04:27:58.840Z,6.60
2019-05-15T04:30:30.888Z,6.50
2019-05-15T04:33:01.550Z,6.50
2019-05-15T04:35:32.010Z,6.50
2019-05-15T04:38:02.418Z,6.50
2019-05-15T04:40:32.777Z,6.50
2019-05-15T04:43:03.231Z,6.60
2019-05-15T04:45:35.126Z,6.60
2019-05-15T04:48:05.709Z,6.60
2019-05-15T04:50:39.564Z,6.40
2019-05-15T04:53:10.700Z,6.40
2019-05-15T04:55:40.908Z,6.50
2019-05-15T04:58:11.501Z,6.70
2019-05-15T05:00:52.840Z,6.70
2019-05-15T05:03:23.350Z,6.70
2019-05-15T05:05:53.910Z,6.80
2019-05-15T05:08:24.758Z,6.90
2019-05-15T05:10:55.126Z,7.00
2019-05-15T05:13:28.407Z,7.00
2019-05-15T05:15:58.669Z,7.00
2019-05-15T05:18:30.426Z,7.00
2019-05-15T05:21:00.826Z,7.10
2019-05-15T05:23:31.169Z,7.00
2019-05-15T05:26:01.537Z,7.10
2019-05-15T05:28:31.865Z,7.20
2019-05-15T05:31:02.247Z,7.20
2019-05-15T05:33:32.590Z,7.30
2019-05-15T05:36:02.968Z,7.30
2019-05-15T05:38:33.406Z,7.40
2019-05-15T05:41:03.757Z,7.50
2019-05-15T05:43:34.422Z,7.50
2019-05-15T05:46:04.815Z,7.50
2019-05-15T05:48:35.445Z,7.60
2019-05-15T05:51:05.798Z,7.60
2019-05-15T05:53:38.217Z,7.80
2019-05-15T05:56:08.848Z,7.80
2019-05-15T05:58:39.644Z,7.80
2019-05-15T06:01:10.005Z,7.80
2019-05-15T06:03:40.391Z,7.90
2019-05-15T06:06:10.718Z,8.00
2019-05-15T06:08:41.103Z,8.10
2019-05-15T06:11:11.449Z,8.20
2019-05-15T06:13:41.909Z,8.30
2019-05-15T06:16:12.270Z,8.50
2019-05-15T06:18:42.650Z,8.60
2019-05-15T06:21:13.025Z,8.70
2019-05-15T06:23:45.969Z,8.80
2019-05-15T06:26:15.692Z,9.00
2019-05-15T06:28:48.747Z,9.10
2019-05-15T06:31:18.980Z,9.10
2019-05-15T06:33:51.023Z,9.30
2019-05-15T06:36:21.366Z,9.40
2019-05-15T06:38:51.979Z,9.40
2019-05-15T06:41:22.334Z,9.40
2019-05-15T06:43:52.734Z,9.50
2019-05-15T06:46:23.077Z,9.70
2019-05-15T06:48:53.473Z,10.00
2019-05-15T06:51:23.867Z,10.10
2019-05-15T06:53:54.334Z,10.40
2019-05-15T06:56:24.714Z,10.60
2019-05-15T06:58:55.083Z,10.70
2019-05-15T07:01:25.470Z,10.90
2019-05-15T07:03:55.862Z,11.00
2019-05-15T07:06:28.555Z,11.20
2019-05-15T07:08:58.927Z,11.30
2019-05-15T07:11:29.402Z,11.40
2019-05-15T07:13:59.803Z,11.50
2019-05-15T07:16:30.212Z,11.60
2019-05-15T07:19:00.597Z,11.80
2019-05-15T07:21:31.002Z,11.90
2019-05-15T07:24:01.462Z,12.20
2019-05-15T07:26:32.175Z,12.30
2019-05-15T07:29:02.568Z,12.50
2019-05-15T07:31:33.194Z,12.60
2019-05-15T07:34:03.577Z,12.70
2019-05-15T07:36:33.937Z,12.90
2019-05-15T07:39:08.257Z,12.90
2019-05-15T07:41:39.209Z,13.00
2019-05-15T07:44:09.869Z,13.00
2019-05-15T07:46:40.213Z,13.00
2019-05-15T07:49:10.609Z,13.10
2019-05-15T07:51:40.985Z,13.20
2019-05-15T07:54:11.426Z,13.20
2019-05-15T07:56:41.808Z,13.20
2019-05-15T07:59:12.197Z,13.50
2019-05-15T08:01:42.560Z,13.50
2019-05-15T08:04:24.750Z,13.60
2019-05-15T08:06:45.118Z,13.80
2019-05-15T08:09:17.861Z,13.90
2019-05-15T08:11:48.624Z,14.00
2019-05-15T08:14:19.266Z,14.10
2019-05-15T08:16:49.618Z,14.20
2019-05-15T08:19:20.024Z,14.20
2019-05-15T08:21:51.750Z,14.30
2019-05-15T08:24:22.460Z,14.40
2019-05-15T08:26:52.844Z,14.60
2019-05-15T08:29:23.210Z,14.60
2019-05-15T08:31:53.611Z,14.60
2019-05-15T08:34:23.954Z,14.70
2019-05-15T08:36:54.460Z,14.90
2019-05-15T08:39:24.882Z,15.00
2019-05-15T08:41:55.250Z,15.00
2019-05-15T08:44:25.697Z,15.00
2019-05-15T08:46:58.334Z,15.20
2019-05-15T08:49:28.464Z,15.30
2019-05-15T08:51:58.922Z,15.40
2019-05-15T08:54:29.518Z,15.50
2019-05-15T08:57:00.007Z,15.50
2019-05-15T08:59:30.366Z,15.30
2019-05-15T09:02:00.744Z,15.10
2019-05-15T09:04:34.807Z,15.20
2019-05-15T09:07:03.256Z,15.40
2019-05-15T09:09:38.328Z,15.30
2019-05-15T09:12:08.889Z,15.30
2019-05-15T09:14:39.239Z,15.70
2019-05-15T09:17:09.625Z,15.70
2019-05-15T09:19:40.002Z,15.50
2019-05-15T09:22:10.379Z,15.70
2019-05-15T09:24:40.741Z,15.90
2019-05-15T09:27:11.206Z,16.10
2019-05-15T09:29:41.614Z,16.60
2019-05-15T09:32:12.522Z,17.30
2019-05-15T09:34:50.498Z,17.30
2019-05-15T09:37:15.131Z,17.40
2019-05-15T09:39:45.486Z,17.70
2019-05-15T09:42:17.936Z,18.20
2019-05-15T09:44:48.605Z,18.20
2019-05-15T09:47:20.001Z,18.50
2019-05-15T09:49:50.372Z,17.90
2019-05-15T09:52:23.142Z,17.90
2019-05-15T09:54:52.799Z,18.00
2019-05-15T09:57:23.198Z,18.50
2019-05-15T09:59:53.558Z,19.00
2019-05-15T10:02:23.926Z,18.40
2019-05-15T10:05:06.081Z,17.90
2019-05-15T10:07:28.541Z,18.20
2019-05-15T10:09:58.418Z,18.20
2019-05-15T10:12:34.552Z,18.10
2019-05-15T10:15:00.925Z,17.50
2019-05-15T10:17:31.366Z,17.10
2019-05-15T10:20:01.735Z,16.60
2019-05-15T10:22:32.144Z,16.40
2019-05-15T10:25:02.510Z,16.20
2019-05-15T10:27:32.896Z,16.30
2019-05-15T10:30:03.276Z,16.20
2019-05-15T10:32:33.660Z,16.10
2019-05-15T10:35:04.326Z,16.00
2019-05-15T10:37:34.707Z,15.90
2019-05-15T10:40:06.042Z,15.80
2019-05-15T10:42:39.478Z,15.70
2019-05-15T10:45:09.010Z,15.70
2019-05-15T10:47:39.419Z,15.50
2019-05-15T10:50:10.677Z,15.60
2019-05-15T10:52:41.086Z,15.70
2019-05-15T10:55:11.551Z,15.80
2019-05-15T10:57:44.195Z,15.80
2019-05-15T11:00:15.433Z,15.90
2019-05-15T11:02:45.826Z,15.90
2019-05-15T11:05:18.031Z,15.90
2019-05-15T11:07:48.675Z,16.10
2019-05-15T11:10:19.223Z,16.00
2019-05-15T11:12:49.608Z,16.20
2019-05-15T11:15:21.469Z,16.20
2019-05-15T11:17:51.878Z,16.10
2019-05-15T11:20:22.339Z,15.80
2019-05-15T11:22:52.735Z,15.60
2019-05-15T11:25:23.195Z,15.70
2019-05-15T11:27:53.596Z,15.80
2019-05-15T11:30:23.964Z,15.70
2019-05-15T11:32:54.362Z,15.70
2019-05-15T11:35:24.710Z,15.50
2019-05-15T11:37:57.067Z,15.40
2019-05-15T11:40:28.384Z,15.30
2019-05-15T11:42:58.954Z,15.00
2019-05-15T11:45:29.486Z,15.00
2019-05-15T11:48:01.032Z,15.00
2019-05-15T11:50:31.716Z,15.10
2019-05-15T11:53:02.151Z,15.00
2019-05-15T11:55:32.601Z,15.00
2019-05-15T11:58:03.030Z,15.20
2019-05-15T12:00:33.385Z,15.40
2019-05-15T12:03:03.826Z,15.70
2019-05-15T12:05:34.169Z,16.00
2019-05-15T12:08:04.652Z,16.20
2019-05-15T12:10:35.014Z,16.20
2019-05-15T12:13:05.389Z,16.20
2019-05-15T12:15:35.783Z,16.10
2019-05-15T12:18:08.494Z,15.90
2019-05-15T12:23:10.397Z,15.80
2019-05-15T12:25:40.762Z,15.70
2019-05-15T12:28:11.157Z,15.90
2019-05-15T12:30:41.641Z,15.90
2019-05-15T12:33:12.030Z,16.00
2019-05-15T12:35:42.415Z,15.90
2019-05-15T12:38:12.865Z,15.90
2019-05-15T13:00:59.895Z,16.50
2019-05-15T13:03:30.306Z,16.40
2019-05-15T13:06:00.674Z,16.50
2019-05-15T13:08:31.042Z,16.70
2019-05-15T13:11:01.813Z,16.80
2019-05-15T13:13:32.330Z,16.70
2019-05-15T13:16:02.726Z,16.50
2019-05-15T13:18:33.095Z,16.40
2019-05-15T13:21:03.490Z,16.40
2019-05-15T13:23:33.854Z,16.50
2019-05-15T13:26:04.251Z,16.50
2019-05-15T13:28:34.630Z,16.30
2019-05-15T13:31:05.038Z,16.20
2019-05-15T13:33:35.402Z,16.00
2019-05-15T13:36:05.837Z,15.90
2019-05-15T13:38:38.106Z,15.90
2019-05-15T13:41:09.402Z,15.90
2019-05-15T13:43:40.115Z,16.00
2019-05-15T13:46:10.497Z,15.90
2019-05-15T13:48:40.917Z,15.80
2019-05-15T13:51:11.338Z,16.00
2019-05-15T13:53:41.765Z,16.20
2019-05-15T13:56:12.126Z,16.40
2019-05-15T13:58:42.531Z,16.60
2019-05-15T14:01:12.898Z,16.50
2019-05-15T14:03:43.295Z,16.50
2019-05-15T14:06:13.677Z,16.40
2019-05-15T14:08:44.129Z,16.20
2019-05-15T14:11:14.511Z,16.10
2019-05-15T14:13:44.976Z,16.20
2019-05-15T14:16:15.333Z,16.10
2019-05-15T14:18:47.854Z,16.10
2019-05-15T14:21:18.427Z,16.30
2019-05-15T14:23:48.986Z,16.10
2019-05-15T14:26:22.999Z,16.20
2019-05-15T14:28:51.556Z,16.20
2019-05-15T14:31:21.902Z,16.30
2019-05-15T14:33:52.293Z,16.40
2019-05-15T14:36:22.741Z,16.40
2019-05-15T14:38:53.218Z,16.20
2019-05-15T14:41:23.682Z,16.00
2019-05-15T14:43:54.075Z,16.00
2019-05-15T14:46:24.597Z,15.90
2019-05-15T14:48:55.003Z,16.00
2019-05-15T14:51:25.378Z,16.10
2019-05-15T14:53:58.214Z,16.30
2019-05-15T14:56:27.892Z,16.30
2019-05-15T14:58:58.678Z,16.40
2019-05-15T15:01:29.121Z,16.40
2019-05-15T15:03:59.495Z,16.20
2019-05-15T15:06:29.881Z,16.10
2019-05-15T15:09:00.436Z,16.00
2019-05-15T15:11:30.847Z,15.80
2019-05-15T15:14:01.251Z,15.70
2019-05-15T15:16:31.602Z,15.60
2019-05-15T15:19:02.002Z,15.50
2019-05-15T15:21:32.651Z,15.50
2019-05-15T15:24:03.072Z,15.60
2019-05-15T15:26:33.438Z,15.80
2019-05-15T15:29:03.901Z,15.80
2019-05-15T15:31:34.303Z,15.90
2019-05-15T15:34:04.699Z,15.70
2019-05-15T15:36:35.075Z,15.70
2019-05-15T15:39:08.245Z,15.60
2019-05-15T15:41:39.144Z,15.60
2019-05-15T15:44:09.666Z,15.50
2019-05-15T15:46:40.124Z,15.50
2019-05-15T15:49:10.791Z,15.40
2019-05-15T15:51:41.254Z,15.30
2019-05-15T15:54:11.714Z,15.30
2019-05-15T15:56:42.116Z,15.20
2019-05-15T15:59:12.578Z,15.10
2019-05-15T16:01:42.978Z,15.10
2019-05-15T16:04:13.366Z,15.10
2019-05-15T16:06:43.761Z,15.10
2019-05-15T16:09:14.154Z,15.10
2019-05-15T16:11:44.608Z,15.20
2019-05-15T16:14:15.053Z,15.10
2019-05-15T16:16:45.745Z,15.20
2019-05-15T16:19:18.213Z,15.10
2019-05-15T16:21:49.037Z,15.00
2019-05-15T16:24:21.792Z,14.90
2019-05-15T16:26:51.826Z,14.80
2019-05-15T16:29:22.351Z,14.70
2019-05-15T16:31:52.738Z,14.70
2019-05-15T16:34:23.114Z,14.60
2019-05-15T16:36:53.594Z,14.70
2019-05-15T16:39:24.008Z,14.50
2019-05-15T16:41:54.434Z,14.30
2019-05-15T16:44:24.909Z,14.30
2019-05-15T16:46:55.320Z,14.30
2019-05-15T16:49:25.713Z,14.30
2019-05-15T16:51:58.270Z,14.20
2019-05-15T16:54:29.015Z,14.10
2019-05-15T16:56:59.791Z,14.10
2019-05-15T16:59:35.743Z,14.00
2019-05-15T17:02:02.346Z,14.00
2019-05-15T17:04:32.773Z,14.00
2019-05-15T17:07:04.347Z,14.10
2019-05-15T17:09:34.740Z,14.10
2019-05-15T17:12:08.550Z,14.10
2019-05-15T17:14:38.873Z,14.10
2019-05-15T17:17:09.477Z,14.10
2019-05-15T17:20:02.488Z,14.20
2019-05-15T17:22:32.923Z,14.10
2019-05-15T17:25:03.400Z,14.00
2019-05-15T17:27:33.881Z,13.90
2019-05-15T17:30:04.777Z,13.90
2019-05-15T17:32:35.165Z,13.90
2019-05-15T17:35:06.025Z,13.90
2019-05-15T17:37:37.999Z,13.90
2019-05-15T17:40:09.057Z,13.90
2019-05-15T17:42:39.514Z,13.80
2019-05-15T17:45:10.434Z,13.80
2019-05-15T17:47:40.857Z,13.80
2019-05-15T17:50:12.547Z,13.80
2019-05-15T17:52:42.945Z,13.80
2019-05-15T17:55:13.765Z,13.70
2019-05-15T17:57:44.181Z,13.60
2019-05-15T18:00:14.941Z,13.50
2019-05-15T18:02:45.421Z,13.50
2019-05-15T18:05:18.611Z,13.40
2019-05-15T18:07:48.868Z,13.40
2019-05-15T18:10:20.328Z,13.40
2019-05-15T18:12:50.756Z,13.40
2019-05-15T18:15:21.115Z,13.30
2019-05-15T18:17:51.920Z,13.20
2019-05-15T18:20:29.202Z,13.10
2019-05-15T18:22:59.173Z,13.10
2019-05-15T18:25:29.851Z,13.10
2019-05-15T18:28:00.243Z,13.10
2019-05-15T18:30:30.660Z,13.10
2019-05-15T18:33:01.303Z,13.10
2019-05-15T18:35:32.894Z,13.00
2019-05-15T18:38:03.523Z,13.00
2019-05-15T18:40:34.086Z,12.80
2019-05-15T18:43:04.504Z,12.80
2019-05-15T18:45:35.186Z,12.80
2019-05-15T18:48:05.737Z,12.80
2019-05-15T18:50:37.791Z,12.80
2019-05-15T18:53:09.636Z,12.60
2019-05-15T18:55:40.010Z,12.60
2019-05-15T18:58:10.485Z,12.50
2019-05-15T19:00:41.212Z,12.40
2019-05-15T19:03:19.401Z,12.40
2019-05-15T19:05:43.818Z,12.20
2019-05-15T19:08:14.309Z,12.10
2019-05-15T19:10:44.678Z,12.00
2019-05-15T19:13:15.146Z,11.90
2019-05-15T19:15:45.521Z,11.90
2019-05-15T19:18:15.938Z,11.90
2019-05-15T19:20:48.515Z,11.90
2019-05-15T19:23:18.431Z,11.80
2019-05-15T19:25:48.802Z,11.80
2019-05-15T19:28:20.827Z,11.70
2019-05-15T19:30:51.245Z,11.70
2019-05-15T19:33:33.402Z,11.60
2019-05-15T19:35:53.705Z,11.40
2019-05-15T19:38:24.293Z,11.40
2019-05-15T19:40:54.665Z,11.40
2019-05-15T19:43:25.402Z,11.30
2019-05-15T19:45:55.841Z,11.30
2019-05-15T19:48:26.359Z,11.20
2019-05-15T19:50:58.256Z,11.20
2019-05-15T19:53:28.904Z,11.20
2019-05-15T19:55:59.377Z,11.20
2019-05-15T19:58:30.076Z,11.20
2019-05-15T20:01:00.543Z,11.10
2019-05-15T20:03:31.115Z,11.00
2019-05-15T20:06:01.835Z,11.00
2019-05-15T20:08:32.534Z,10.90
2019-05-15T20:11:02.925Z,10.90
2019-05-15T20:13:33.617Z,10.80
2019-05-15T20:16:04.190Z,10.80
2019-05-15T20:18:34.626Z,10.90
2019-05-15T20:21:05.718Z,10.90
2019-05-15T20:23:38.235Z,10.80
2019-05-15T20:26:08.621Z,10.80
2019-05-15T20:28:39.440Z,10.80
2019-05-15T20:31:09.876Z,10.70
2019-05-15T20:33:40.314Z,10.70
2019-05-15T20:36:10.735Z,10.70
2019-05-15T20:38:44.148Z,10.70
2019-05-15T20:41:14.642Z,10.70
2019-05-15T20:43:45.311Z,10.70
2019-05-15T20:46:15.701Z,10.70
2019-05-15T20:48:48.575Z,10.70
2019-05-15T20:51:18.671Z,10.70
2019-05-15T20:53:49.269Z,10.70
2019-05-15T20:56:19.758Z,10.70
2019-05-15T20:58:50.227Z,10.70
2019-05-15T21:01:20.646Z,10.60
2019-05-15T21:03:51.145Z,10.60
2019-05-15T21:06:21.698Z,10.60
2019-05-15T21:08:52.128Z,10.60
2019-05-15T21:11:22.657Z,10.60
2019-05-15T21:13:53.330Z,10.50
2019-05-15T21:16:23.881Z,10.50
2019-05-15T21:18:54.352Z,10.40
2019-05-15T21:21:24.826Z,10.50
2019-05-15T21:23:55.250Z,10.40
2019-05-15T21:26:25.727Z,10.30
2019-05-15T21:28:58.270Z,10.30
2019-05-15T21:31:28.531Z,10.20
2019-05-15T21:33:59.123Z,10.30
2019-05-15T21:36:31.369Z,10.30
2019-05-15T21:39:01.985Z,10.20
2019-05-15T21:41:32.422Z,10.20
2019-05-15T21:44:02.834Z,10.10
2019-05-15T21:46:33.810Z,10.10
2019-05-15T21:49:04.351Z,10.00
2019-05-15T21:51:34.825Z,10.00
2019-05-15T21:54:05.256Z,10.00
2019-05-15T21:56:35.777Z,10.10
2019-05-15T21:59:08.188Z,10.10
2019-05-15T22:01:39.660Z,10.10
2019-05-15T22:04:10.390Z,9.90
2019-05-15T22:06:40.822Z,9.90
2019-05-15T22:09:18.360Z,9.70
2019-05-15T22:11:49.788Z,9.70
2019-05-15T22:14:20.417Z,9.80
2019-05-15T22:16:51.602Z,9.60
2019-05-15T22:19:22.781Z,9.70
2019-05-15T22:21:53.205Z,9.70
2019-05-15T22:24:23.580Z,9.60
2019-05-15T22:26:54.384Z,9.60
2019-05-15T22:29:24.805Z,9.60
2019-05-15T22:31:55.201Z,9.60
2019-05-15T22:34:25.654Z,9.50
2019-05-15T22:36:58.254Z,9.50
2019-05-15T22:39:28.381Z,9.40
2019-05-15T22:41:59.053Z,9.40
2019-05-15T22:44:29.593Z,9.30
2019-05-15T22:47:00.058Z,9.30
2019-05-15T22:49:30.461Z,9.20
2019-05-15T22:52:00.890Z,9.20
2019-05-15T22:54:31.433Z,9.20
2019-05-15T22:57:02.194Z,9.20
2019-05-15T22:59:32.582Z,9.10
2019-05-15T23:02:03.130Z,9.00
2019-05-15T23:04:33.523Z,9.00
2019-05-15T23:07:03.901Z,9.00
2019-05-15T23:09:34.350Z,9.10
2019-05-15T23:12:05.158Z,9.10
2019-05-15T23:14:37.850Z,9.10
2019-05-15T23:17:08.269Z,9.20
2019-05-15T23:19:38.754Z,9.00
2019-05-15T23:22:09.130Z,8.80
2019-05-15T23:24:39.523Z,8.80
2019-05-15T23:27:09.905Z,8.70
2019-05-15T23:29:40.273Z,8.70
2019-05-15T23:32:10.621Z,8.60
2019-05-15T23:34:42.206Z,8.80
2019-05-15T23:37:12.560Z,8.70
2019-05-15T23:39:42.946Z,8.60
2019-05-15T23:42:13.306Z,8.50
2019-05-15T23:44:43.699Z,8.50
2019-05-15T23:47:14.041Z,8.50
2019-05-15T23:49:44.414Z,8.40
2019-05-15T23:52:14.754Z,8.40
2019-05-15T23:54:45.142Z,8.50
2019-05-15T23:57:17.825Z,8.60
2019-05-15T23:59:47.784Z,8.70
